METAR Data
IDs: Format: Raw Decoded Include TAF

Data at: 0742 UTC 28 Sep 2022

KPEZ 280735Z AUTO 00000KT 10SM CLR 14/08 A3016 RMK AO2 T01440083